Terminal Aerodrome Forecast
Issued by NWS Louisville, KY

Home | Current Version | Previous Version | Text Only | Print | Product List | Glossary On
Versions: 1 2 3 4 5 6 7 8 9 10 11 12 13 14 15 16 17 18 19 20 21 22 23 24 25 26
000
FTUS43 KLMK 031800 AAA
TAFSDF
TAF AMD
KSDF 031801Z 0318/0424 VRB04KT P6SM VCSH BKN015
      TEMPO 0318/0319 1 1/2SM +SHRA BKN008
     FM031900 30006KT P6SM VCTS BKN040CB
      TEMPO 0319/0323 2SM TSRA BR BKN017CB
     FM040300 VRB03KT P6SM BKN017
     FM041400 36005KT P6SM BKN040=

USA.gov is the U.S. government's official web portal to all federal, state and local government web resources and services.